Startpagina
METAR-TAF:

METAR-TAF

Vliegvelden :

Aeroporto João Paulo II

Ponta Delgada, Azoren, Portugal

breedte: 37-44N, lengte: 025-42W, hoogte: 71 m

Actueel weer

Dit bericht is 10 minuten geleden gemaakt, om 21:00 UTC
Wind 9 kt uit het noorden, variërend tussen het noordwesten en het noordnoordoosten
Temperatuur 22°C
Vochtigheid 78%
Druk 1028 hPa
Zicht 10 km of meer
Weinig wolken op 800 ft
Verspreide wolken op 1600 ft
Gebroken wolken op 4000 ft

METAR: LPPD 212100Z 36009KT 320V030 9999 FEW008 SCT016 BKN040 22/18 Q1028

Tijdstip: 21:10 (21:10 UTC)

Verwachting

Dit bericht is 4 uur en het 10 minuten geleden gemaakt, om 17:00 UTC
Verwachting geldig van 21 om 18 UTC tot 22 om 18 UTC
Wind 13 kt uit het noorden
Zicht 10 km of meer
Verspreide wolken op 1500 ft
Gebroken wolken op 3500 ft
Kans 40% :
Tijdelijke
van 21 om 18 UTC tot 22 om 15 UTC
Zicht: 6000 m
Verspreide wolken op 800 ft
Gebroken wolken op 1200 ft
lichte regen

TAF: LPPD 211700Z 2118/2218 01013KT 9999 SCT015 BKN035 PROB40 TEMPO 2118/2215 6000 -RA SCT008 BKN012

Waarnemingen en weersverwachtingen van meer dan 4000 vliegvelden (METAR en TAF).

De beschikbare stations zijn de gele en rode punten op de kaart.

Ga met uw muis naar het station om de naam te zien.

Klik dan om waarnemingen en weersverwachtingen te zien.

kaart wijzigen: klik op de groene knoppen met een zwart kruis om in te zoomen, op de groene knop met een streepje om uit te zoomen of op de groene pijlen voor aangrenzende kaarten.


METAR-TAF: